sensor_id;sensor_type;location;lat;lon;timestamp;temperature;humidity
15937;DHT22;9163;48.818;8.976;2022-09-24T00:01:23;10.80;99.90
15937;DHT22;9163;48.818;8.976;2022-09-24T00:03:53;10.80;99.90
15937;DHT22;9163;48.818;8.976;2022-09-24T00:06:21;10.80;99.90
15937;DHT22;9163;48.818;8.976;2022-09-24T00:08:51;10.80;99.90
15937;DHT22;9163;48.818;8.976;2022-09-24T00:11:19;10.80;99.90
15937;DHT22;9163;48.818;8.976;2022-09-24T00:13:46;10.90;99.90
15937;DHT22;9163;48.818;8.976;2022-09-24T00:16:15;11.00;99.90
15937;DHT22;9163;48.818;8.976;2022-09-24T00:18:43;11.00;99.90
15937;DHT22;9163;48.818;8.976;2022-09-24T00:21:14;10.90;99.90
15937;DHT22;9163;48.818;8.976;2022-09-24T00:23:41;11.00;99.90
15937;DHT22;9163;48.818;8.976;2022-09-24T00:26:10;11.00;99.90
15937;DHT22;9163;48.818;8.976;2022-09-24T00:28:54;11.00;99.90
15937;DHT22;9163;48.818;8.976;2022-09-24T00:31:22;10.90;99.90
15937;DHT22;9163;48.818;8.976;2022-09-24T00:33:50;10.90;99.90
15937;DHT22;9163;48.818;8.976;2022-09-24T00:36:19;10.80;99.90
15937;DHT22;9163;48.818;8.976;2022-09-24T00:38:48;10.80;99.90
15937;DHT22;9163;48.818;8.976;2022-09-24T00:41:16;10.80;99.90
15937;DHT22;9163;48.818;8.976;2022-09-24T00:43:46;10.80;99.90
15937;DHT22;9163;48.818;8.976;2022-09-24T00:46:17;10.80;99.90
15937;DHT22;9163;48.818;8.976;2022-09-24T00:48:46;10.80;99.90
15937;DHT22;9163;48.818;8.976;2022-09-24T00:51:19;10.80;99.90
15937;DHT22;9163;48.818;8.976;2022-09-24T00:53:49;10.80;99.90
15937;DHT22;9163;48.818;8.976;2022-09-24T00:56:19;10.80;99.90
15937;DHT22;9163;48.818;8.976;2022-09-24T00:58:50;10.80;99.90
15937;DHT22;9163;48.818;8.976;2022-09-24T01:01:20;10.70;99.90
15937;DHT22;9163;48.818;8.976;2022-09-24T01:03:49;10.60;99.90
15937;DHT22;9163;48.818;8.976;2022-09-24T01:06:18;10.60;99.90
15937;DHT22;9163;48.818;8.976;2022-09-24T01:08:46;10.50;99.90
15937;DHT22;9163;48.818;8.976;2022-09-24T01:11:30;10.50;99.90
15937;DHT22;9163;48.818;8.976;2022-09-24T01:14:32;10.40;99.90
15937;DHT22;9163;48.818;8.976;2022-09-24T01:17:09;10.40;99.90
15937;DHT22;9163;48.818;8.976;2022-09-24T01:20:26;10.30;99.90
15937;DHT22;9163;48.818;8.976;2022-09-24T01:23:15;10.30;99.90
15937;DHT22;9163;48.818;8.976;2022-09-24T01:25:52;10.30;99.90
15937;DHT22;9163;48.818;8.976;2022-09-24T01:28:34;10.30;99.90
15937;DHT22;9163;48.818;8.976;2022-09-24T01:31:13;10.20;99.90
15937;DHT22;9163;48.818;8.976;2022-09-24T01:33:44;10.20;99.90
15937;DHT22;9163;48.818;8.976;2022-09-24T01:36:12;10.20;99.90
15937;DHT22;9163;48.818;8.976;2022-09-24T01:38:42;10.20;99.90
15937;DHT22;9163;48.818;8.976;2022-09-24T01:41:11;10.10;99.90
15937;DHT22;9163;48.818;8.976;2022-09-24T01:43:40;10.10;99.90
15937;DHT22;9163;48.818;8.976;2022-09-24T01:46:11;10.20;99.90
15937;DHT22;9163;48.818;8.976;2022-09-24T01:48:40;10.10;99.90
15937;DHT22;9163;48.818;8.976;2022-09-24T01:51:11;10.10;99.90
15937;DHT22;9163;48.818;8.976;2022-09-24T01:53:44;10.00;99.90
15937;DHT22;9163;48.818;8.976;2022-09-24T01:56:15;10.00;99.90
15937;DHT22;9163;48.818;8.976;2022-09-24T01:58:48;10.10;99.90
15937;DHT22;9163;48.818;8.976;2022-09-24T02:01:22;10.10;99.90
15937;DHT22;9163;48.818;8.976;2022-09-24T02:03:56;10.10;99.90
15937;DHT22;9163;48.818;8.976;2022-09-24T02:06:27;10.10;99.90
15937;DHT22;9163;48.818;8.976;2022-09-24T02:08:56;10.00;99.90
15937;DHT22;9163;48.818;8.976;2022-09-24T02:11:25;10.00;99.90
15937;DHT22;9163;48.818;8.976;2022-09-24T02:13:55;10.10;99.90
15937;DHT22;9163;48.818;8.976;2022-09-24T02:16:29;10.00;99.90
15937;DHT22;9163;48.818;8.976;2022-09-24T02:19:00;10.10;99.90
15937;DHT22;9163;48.818;8.976;2022-09-24T02:21:28;10.10;99.90
15937;DHT22;9163;48.818;8.976;2022-09-24T02:24:00;10.10;99.90
15937;DHT22;9163;48.818;8.976;2022-09-24T02:26:29;10.10;99.90
15937;DHT22;9163;48.818;8.976;2022-09-24T02:28:56;10.20;99.90
15937;DHT22;9163;48.818;8.976;2022-09-24T02:31:28;10.20;99.90
15937;DHT22;9163;48.818;8.976;2022-09-24T02:33:58;10.20;99.90
15937;DHT22;9163;48.818;8.976;2022-09-24T02:36:44;10.10;99.90
15937;DHT22;9163;48.818;8.976;2022-09-24T02:39:12;10.10;99.90
15937;DHT22;9163;48.818;8.976;2022-09-24T02:41:39;10.10;99.90
15937;DHT22;9163;48.818;8.976;2022-09-24T02:44:07;10.20;99.90
15937;DHT22;9163;48.818;8.976;2022-09-24T02:46:35;10.20;99.90
15937;DHT22;9163;48.818;8.976;2022-09-24T02:49:06;10.20;99.90
15937;DHT22;9163;48.818;8.976;2022-09-24T02:51:34;10.20;99.90
15937;DHT22;9163;48.818;8.976;2022-09-24T02:54:01;10.20;99.90
15937;DHT22;9163;48.818;8.976;2022-09-24T02:56:29;10.20;99.90
15937;DHT22;9163;48.818;8.976;2022-09-24T02:58:56;10.20;99.90
15937;DHT22;9163;48.818;8.976;2022-09-24T03:01:24;10.20;99.90
15937;DHT22;9163;48.818;8.976;2022-09-24T03:03:52;10.20;99.90
15937;DHT22;9163;48.818;8.976;2022-09-24T03:06:19;10.20;99.90
15937;DHT22;9163;48.818;8.976;2022-09-24T03:08:47;10.20;99.90
15937;DHT22;9163;48.818;8.976;2022-09-24T03:11:14;10.30;99.90
15937;DHT22;9163;48.818;8.976;2022-09-24T03:13:41;10.20;99.90
15937;DHT22;9163;48.818;8.976;2022-09-24T03:16:08;10.20;99.90
15937;DHT22;9163;48.818;8.976;2022-09-24T03:18:35;10.30;99.90
15937;DHT22;9163;48.818;8.976;2022-09-24T03:21:06;10.30;99.90
15937;DHT22;9163;48.818;8.976;2022-09-24T03:23:34;10.30;99.90
15937;DHT22;9163;48.818;8.976;2022-09-24T03:26:02;10.30;99.90
15937;DHT22;9163;48.818;8.976;2022-09-24T03:28:29;10.30;99.90
15937;DHT22;9163;48.818;8.976;2022-09-24T03:30:57;10.30;99.90
15937;DHT22;9163;48.818;8.976;2022-09-24T03:33:27;10.30;99.90
15937;DHT22;9163;48.818;8.976;2022-09-24T03:35:55;10.30;99.90
15937;DHT22;9163;48.818;8.976;2022-09-24T03:38:24;10.30;99.90
15937;DHT22;9163;48.818;8.976;2022-09-24T03:40:51;10.30;99.90
15937;DHT22;9163;48.818;8.976;2022-09-24T03:43:19;10.20;99.90
15937;DHT22;9163;48.818;8.976;2022-09-24T03:45:46;10.20;99.90
15937;DHT22;9163;48.818;8.976;2022-09-24T03:48:14;10.20;99.90
15937;DHT22;9163;48.818;8.976;2022-09-24T03:50:41;10.20;99.90
15937;DHT22;9163;48.818;8.976;2022-09-24T03:53:09;10.20;99.90
15937;DHT22;9163;48.818;8.976;2022-09-24T03:55:42;10.30;99.90
15937;DHT22;9163;48.818;8.976;2022-09-24T03:58:12;10.30;99.90
15937;DHT22;9163;48.818;8.976;2022-09-24T04:00:39;10.30;99.90
15937;DHT22;9163;48.818;8.976;2022-09-24T04:03:07;10.30;99.90
15937;DHT22;9163;48.818;8.976;2022-09-24T04:05:35;10.30;99.90
15937;DHT22;9163;48.818;8.976;2022-09-24T04:08:03;10.30;99.90
15937;DHT22;9163;48.818;8.976;2022-09-24T04:10:31;10.20;99.90
15937;DHT22;9163;48.818;8.976;2022-09-24T04:13:00;10.20;99.90
15937;DHT22;9163;48.818;8.976;2022-09-24T04:15:27;10.20;99.90
15937;DHT22;9163;48.818;8.976;2022-09-24T04:17:56;10.20;99.90
15937;DHT22;9163;48.818;8.976;2022-09-24T04:20:25;10.20;99.90
15937;DHT22;9163;48.818;8.976;2022-09-24T04:22:54;10.20;99.90
15937;DHT22;9163;48.818;8.976;2022-09-24T04:25:22;10.30;99.90
15937;DHT22;9163;48.818;8.976;2022-09-24T04:27:52;10.30;99.90
15937;DHT22;9163;48.818;8.976;2022-09-24T04:30:21;10.20;99.90
15937;DHT22;9163;48.818;8.976;2022-09-24T04:32:49;10.30;99.90
15937;DHT22;9163;48.818;8.976;2022-09-24T04:35:17;10.30;99.90
15937;DHT22;9163;48.818;8.976;2022-09-24T04:37:45;10.40;99.90
15937;DHT22;9163;48.818;8.976;2022-09-24T04:40:13;10.40;99.90
15937;DHT22;9163;48.818;8.976;2022-09-24T04:42:41;10.40;99.90
15937;DHT22;9163;48.818;8.976;2022-09-24T04:45:10;10.40;99.90
15937;DHT22;9163;48.818;8.976;2022-09-24T04:47:39;10.50;99.90
15937;DHT22;9163;48.818;8.976;2022-09-24T04:50:08;10.50;99.90
15937;DHT22;9163;48.818;8.976;2022-09-24T04:52:36;10.50;99.90
15937;DHT22;9163;48.818;8.976;2022-09-24T04:55:04;10.50;99.90
15937;DHT22;9163;48.818;8.976;2022-09-24T04:57:32;10.40;99.90
15937;DHT22;9163;48.818;8.976;2022-09-24T05:00:03;10.40;99.90
15937;DHT22;9163;48.818;8.976;2022-09-24T05:02:30;10.30;99.90
15937;DHT22;9163;48.818;8.976;2022-09-24T05:04:59;10.40;99.90
15937;DHT22;9163;48.818;8.976;2022-09-24T05:07:26;10.40;99.90
15937;DHT22;9163;48.818;8.976;2022-09-24T05:09:53;10.40;99.90
15937;DHT22;9163;48.818;8.976;2022-09-24T05:12:20;10.30;99.90
15937;DHT22;9163;48.818;8.976;2022-09-24T05:14:48;10.30;99.90
15937;DHT22;9163;48.818;8.976;2022-09-24T05:17:15;10.20;99.90
15937;DHT22;9163;48.818;8.976;2022-09-24T05:19:42;10.20;99.90
15937;DHT22;9163;48.818;8.976;2022-09-24T05:22:10;10.20;99.90
15937;DHT22;9163;48.818;8.976;2022-09-24T05:24:38;10.20;99.90
15937;DHT22;9163;48.818;8.976;2022-09-24T05:27:05;10.20;99.90
15937;DHT22;9163;48.818;8.976;2022-09-24T05:29:35;10.20;99.90
15937;DHT22;9163;48.818;8.976;2022-09-24T05:32:04;10.20;99.90
15937;DHT22;9163;48.818;8.976;2022-09-24T05:34:32;10.20;99.90
15937;DHT22;9163;48.818;8.976;2022-09-24T05:37:00;10.30;99.90
15937;DHT22;9163;48.818;8.976;2022-09-24T05:39:28;10.30;99.90
15937;DHT22;9163;48.818;8.976;2022-09-24T05:41:56;10.40;99.90
15937;DHT22;9163;48.818;8.976;2022-09-24T05:44:24;10.40;99.90
15937;DHT22;9163;48.818;8.976;2022-09-24T05:46:51;10.40;99.90
15937;DHT22;9163;48.818;8.976;2022-09-24T05:49:18;10.40;99.90
15937;DHT22;9163;48.818;8.976;2022-09-24T05:51:48;10.50;99.90
15937;DHT22;9163;48.818;8.976;2022-09-24T05:54:17;10.60;99.90
15937;DHT22;9163;48.818;8.976;2022-09-24T05:56:46;10.70;99.90
15937;DHT22;9163;48.818;8.976;2022-09-24T05:59:13;10.70;99.90
15937;DHT22;9163;48.818;8.976;2022-09-24T06:01:40;10.80;99.90
15937;DHT22;9163;48.818;8.976;2022-09-24T06:04:09;10.90;99.90
15937;DHT22;9163;48.818;8.976;2022-09-24T06:06:36;10.90;99.90
15937;DHT22;9163;48.818;8.976;2022-09-24T06:09:04;11.00;99.90
15937;DHT22;9163;48.818;8.976;2022-09-24T06:11:36;11.10;99.90
15937;DHT22;9163;48.818;8.976;2022-09-24T06:14:05;11.10;99.90
15937;DHT22;9163;48.818;8.976;2022-09-24T06:16:33;11.10;99.90
15937;DHT22;9163;48.818;8.976;2022-09-24T06:19:00;11.20;99.90
15937;DHT22;9163;48.818;8.976;2022-09-24T06:21:27;11.20;99.90
15937;DHT22;9163;48.818;8.976;2022-09-24T06:23:55;11.20;99.90
15937;DHT22;9163;48.818;8.976;2022-09-24T06:26:22;11.30;99.90
15937;DHT22;9163;48.818;8.976;2022-09-24T06:28:51;11.30;99.90
15937;DHT22;9163;48.818;8.976;2022-09-24T06:31:19;11.30;99.90
15937;DHT22;9163;48.818;8.976;2022-09-24T06:33:46;11.30;99.90
15937;DHT22;9163;48.818;8.976;2022-09-24T06:36:14;11.30;99.90
15937;DHT22;9163;48.818;8.976;2022-09-24T06:38:41;11.20;99.90
15937;DHT22;9163;48.818;8.976;2022-09-24T06:41:10;11.30;99.90
15937;DHT22;9163;48.818;8.976;2022-09-24T06:43:37;11.30;99.90
15937;DHT22;9163;48.818;8.976;2022-09-24T06:46:04;11.30;99.90
15937;DHT22;9163;48.818;8.976;2022-09-24T06:48:33;11.30;99.90
15937;DHT22;9163;48.818;8.976;2022-09-24T06:51:03;11.30;99.90
15937;DHT22;9163;48.818;8.976;2022-09-24T06:53:30;11.40;99.90
15937;DHT22;9163;48.818;8.976;2022-09-24T06:55:58;11.50;99.90
15937;DHT22;9163;48.818;8.976;2022-09-24T06:58:25;11.50;99.90
15937;DHT22;9163;48.818;8.976;2022-09-24T07:00:54;11.50;99.90
15937;DHT22;9163;48.818;8.976;2022-09-24T07:03:24;11.60;99.90
15937;DHT22;9163;48.818;8.976;2022-09-24T07:05:52;11.60;99.90
15937;DHT22;9163;48.818;8.976;2022-09-24T07:08:20;11.70;99.90
15937;DHT22;9163;48.818;8.976;2022-09-24T07:10:48;11.80;99.90
15937;DHT22;9163;48.818;8.976;2022-09-24T07:13:16;11.80;99.90
15937;DHT22;9163;48.818;8.976;2022-09-24T07:15:45;11.90;99.90
15937;DHT22;9163;48.818;8.976;2022-09-24T07:18:12;11.90;99.90
15937;DHT22;9163;48.818;8.976;2022-09-24T07:20:40;12.00;99.90
15937;DHT22;9163;48.818;8.976;2022-09-24T07:23:09;12.10;99.90
15937;DHT22;9163;48.818;8.976;2022-09-24T07:25:38;12.20;99.90
15937;DHT22;9163;48.818;8.976;2022-09-24T07:28:06;12.20;99.90
15937;DHT22;9163;48.818;8.976;2022-09-24T07:30:34;12.30;99.90
15937;DHT22;9163;48.818;8.976;2022-09-24T07:33:02;12.40;99.90
15937;DHT22;9163;48.818;8.976;2022-09-24T07:35:30;12.40;99.90
15937;DHT22;9163;48.818;8.976;2022-09-24T07:37:58;12.40;99.90
15937;DHT22;9163;48.818;8.976;2022-09-24T07:40:27;12.40;99.90
15937;DHT22;9163;48.818;8.976;2022-09-24T07:42:55;12.40;99.90
15937;DHT22;9163;48.818;8.976;2022-09-24T07:45:24;12.60;99.90
15937;DHT22;9163;48.818;8.976;2022-09-24T07:47:57;12.70;99.90
15937;DHT22;9163;48.818;8.976;2022-09-24T07:50:26;12.70;99.90
15937;DHT22;9163;48.818;8.976;2022-09-24T07:52:53;12.70;99.90
15937;DHT22;9163;48.818;8.976;2022-09-24T07:55:21;12.70;99.90
15937;DHT22;9163;48.818;8.976;2022-09-24T07:57:51;12.80;99.90
15937;DHT22;9163;48.818;8.976;2022-09-24T08:00:19;13.00;99.90
15937;DHT22;9163;48.818;8.976;2022-09-24T08:02:47;13.10;99.90
15937;DHT22;9163;48.818;8.976;2022-09-24T08:05:15;13.10;99.90
15937;DHT22;9163;48.818;8.976;2022-09-24T08:07:49;13.30;99.90
15937;DHT22;9163;48.818;8.976;2022-09-24T08:10:17;13.40;99.90
15937;DHT22;9163;48.818;8.976;2022-09-24T08:12:44;13.50;99.90
15937;DHT22;9163;48.818;8.976;2022-09-24T08:15:13;13.60;99.90
15937;DHT22;9163;48.818;8.976;2022-09-24T08:17:40;13.70;99.90
15937;DHT22;9163;48.818;8.976;2022-09-24T08:20:08;13.60;99.90
15937;DHT22;9163;48.818;8.976;2022-09-24T08:22:37;13.70;99.90
15937;DHT22;9163;48.818;8.976;2022-09-24T08:25:04;13.70;99.90
15937;DHT22;9163;48.818;8.976;2022-09-24T08:27:32;13.70;99.90
15937;DHT22;9163;48.818;8.976;2022-09-24T08:30:02;13.80;99.90
15937;DHT22;9163;48.818;8.976;2022-09-24T08:32:31;14.10;99.90
15937;DHT22;9163;48.818;8.976;2022-09-24T08:34:58;14.30;99.90
15937;DHT22;9163;48.818;8.976;2022-09-24T08:37:26;14.60;99.90
15937;DHT22;9163;48.818;8.976;2022-09-24T08:39:53;14.80;99.90
15937;DHT22;9163;48.818;8.976;2022-09-24T08:42:30;14.90;99.90
15937;DHT22;9163;48.818;8.976;2022-09-24T08:45:02;15.00;99.90
15937;DHT22;9163;48.818;8.976;2022-09-24T08:47:53;14.90;99.90
15937;DHT22;9163;48.818;8.976;2022-09-24T08:50:23;14.80;99.90
15937;DHT22;9163;48.818;8.976;2022-09-24T08:53:05;14.90;99.90
15937;DHT22;9163;48.818;8.976;2022-09-24T08:55:39;14.90;99.90
15937;DHT22;9163;48.818;8.976;2022-09-24T08:58:27;14.90;99.90
15937;DHT22;9163;48.818;8.976;2022-09-24T09:01:04;14.70;99.90
15937;DHT22;9163;48.818;8.976;2022-09-24T09:03:40;14.70;99.90
15937;DHT22;9163;48.818;8.976;2022-09-24T09:06:14;14.70;99.90
15937;DHT22;9163;48.818;8.976;2022-09-24T09:08:49;14.60;99.90
15937;DHT22;9163;48.818;8.976;2022-09-24T09:11:26;14.80;99.90
15937;DHT22;9163;48.818;8.976;2022-09-24T09:13:57;14.80;99.90
15937;DHT22;9163;48.818;8.976;2022-09-24T09:16:28;14.50;99.90
15937;DHT22;9163;48.818;8.976;2022-09-24T09:19:02;14.20;99.90
15937;DHT22;9163;48.818;8.976;2022-09-24T09:21:36;14.00;99.90
15937;DHT22;9163;48.818;8.976;2022-09-24T09:24:14;13.90;99.90
15937;DHT22;9163;48.818;8.976;2022-09-24T09:26:45;13.90;99.90
15937;DHT22;9163;48.818;8.976;2022-09-24T09:29:13;13.80;99.90
15937;DHT22;9163;48.818;8.976;2022-09-24T09:31:49;13.80;99.90
15937;DHT22;9163;48.818;8.976;2022-09-24T09:34:34;13.80;99.90
15937;DHT22;9163;48.818;8.976;2022-09-24T09:37:11;13.80;99.90
15937;DHT22;9163;48.818;8.976;2022-09-24T09:39:44;13.90;99.90
15937;DHT22;9163;48.818;8.976;2022-09-24T09:42:26;13.90;99.90
15937;DHT22;9163;48.818;8.976;2022-09-24T09:44:54;13.90;99.90
15937;DHT22;9163;48.818;8.976;2022-09-24T09:47:28;14.10;99.90
15937;DHT22;9163;48.818;8.976;2022-09-24T09:50:05;14.10;99.90
15937;DHT22;9163;48.818;8.976;2022-09-24T09:52:38;14.30;99.90
15937;DHT22;9163;48.818;8.976;2022-09-24T09:55:06;14.40;99.90
15937;DHT22;9163;48.818;8.976;2022-09-24T09:57:34;14.60;99.90
15937;DHT22;9163;48.818;8.976;2022-09-24T10:00:02;14.70;99.90
15937;DHT22;9163;48.818;8.976;2022-09-24T10:02:31;14.80;99.90
15937;DHT22;9163;48.818;8.976;2022-09-24T10:05:01;14.70;99.90
15937;DHT22;9163;48.818;8.976;2022-09-24T10:07:30;14.70;99.90
15937;DHT22;9163;48.818;8.976;2022-09-24T10:10:00;14.50;99.90
15937;DHT22;9163;48.818;8.976;2022-09-24T10:12:28;14.50;99.90
15937;DHT22;9163;48.818;8.976;2022-09-24T10:14:57;14.60;99.90
15937;DHT22;9163;48.818;8.976;2022-09-24T10:17:28;14.60;99.90
15937;DHT22;9163;48.818;8.976;2022-09-24T10:19:58;14.60;99.90
15937;DHT22;9163;48.818;8.976;2022-09-24T10:22:26;14.60;99.90
15937;DHT22;9163;48.818;8.976;2022-09-24T10:24:56;14.50;99.90
15937;DHT22;9163;48.818;8.976;2022-09-24T10:27:30;14.50;99.90
15937;DHT22;9163;48.818;8.976;2022-09-24T10:29:59;14.80;99.90
15937;DHT22;9163;48.818;8.976;2022-09-24T10:32:45;15.00;99.90
15937;DHT22;9163;48.818;8.976;2022-09-24T10:35:24;15.20;99.90
15937;DHT22;9163;48.818;8.976;2022-09-24T10:37:53;15.40;99.90
15937;DHT22;9163;48.818;8.976;2022-09-24T10:40:24;15.30;99.90
15937;DHT22;9163;48.818;8.976;2022-09-24T10:42:58;15.20;99.90
15937;DHT22;9163;48.818;8.976;2022-09-24T10:45:35;15.40;99.90
15937;DHT22;9163;48.818;8.976;2022-09-24T10:48:14;15.40;99.90
15937;DHT22;9163;48.818;8.976;2022-09-24T10:50:47;15.40;99.90
15937;DHT22;9163;48.818;8.976;2022-09-24T10:53:27;15.50;99.90
15937;DHT22;9163;48.818;8.976;2022-09-24T10:56:02;15.60;99.90
15937;DHT22;9163;48.818;8.976;2022-09-24T10:59:03;15.80;99.90
15937;DHT22;9163;48.818;8.976;2022-09-24T11:01:39;16.20;99.90
15937;DHT22;9163;48.818;8.976;2022-09-24T11:07:16;17.10;99.90
15937;DHT22;9163;48.818;8.976;2022-09-24T11:09:51;17.10;99.90
15937;DHT22;9163;48.818;8.976;2022-09-24T11:12:29;16.90;99.90
15937;DHT22;9163;48.818;8.976;2022-09-24T11:15:10;16.60;99.90
15937;DHT22;9163;48.818;8.976;2022-09-24T11:17:55;16.40;99.90
15937;DHT22;9163;48.818;8.976;2022-09-24T11:20:31;16.60;99.90
15937;DHT22;9163;48.818;8.976;2022-09-24T11:23:12;16.40;99.90
15937;DHT22;9163;48.818;8.976;2022-09-24T11:25:48;16.20;99.90
15937;DHT22;9163;48.818;8.976;2022-09-24T11:28:37;16.20;99.90
15937;DHT22;9163;48.818;8.976;2022-09-24T11:31:17;15.80;99.90
15937;DHT22;9163;48.818;8.976;2022-09-24T11:34:02;15.80;99.90
15937;DHT22;9163;48.818;8.976;2022-09-24T11:36:49;16.00;99.90
15937;DHT22;9163;48.818;8.976;2022-09-24T11:39:28;16.00;99.90
15937;DHT22;9163;48.818;8.976;2022-09-24T11:42:03;16.10;99.90
15937;DHT22;9163;48.818;8.976;2022-09-24T11:45:03;15.90;99.90
15937;DHT22;9163;48.818;8.976;2022-09-24T11:47:46;16.00;99.90
15937;DHT22;9163;48.818;8.976;2022-09-24T11:50:25;15.70;99.90
15937;DHT22;9163;48.818;8.976;2022-09-24T11:52:58;15.50;99.90
15937;DHT22;9163;48.818;8.976;2022-09-24T11:55:31;15.60;99.90
15937;DHT22;9163;48.818;8.976;2022-09-24T11:58:10;15.60;99.90
15937;DHT22;9163;48.818;8.976;2022-09-24T12:00:43;15.60;99.90
15937;DHT22;9163;48.818;8.976;2022-09-24T12:03:16;15.60;99.90
15937;DHT22;9163;48.818;8.976;2022-09-24T12:05:47;15.60;99.90
15937;DHT22;9163;48.818;8.976;2022-09-24T12:08:20;15.40;99.90
15937;DHT22;9163;48.818;8.976;2022-09-24T12:10:57;15.30;99.90
15937;DHT22;9163;48.818;8.976;2022-09-24T12:13:29;15.40;99.90
15937;DHT22;9163;48.818;8.976;2022-09-24T12:16:02;15.30;99.90
15937;DHT22;9163;48.818;8.976;2022-09-24T12:18:34;15.20;99.90
15937;DHT22;9163;48.818;8.976;2022-09-24T12:21:07;15.20;99.90
15937;DHT22;9163;48.818;8.976;2022-09-24T12:23:38;15.20;99.90
15937;DHT22;9163;48.818;8.976;2022-09-24T12:26:07;15.20;99.90
15937;DHT22;9163;48.818;8.976;2022-09-24T12:28:41;15.20;99.90
15937;DHT22;9163;48.818;8.976;2022-09-24T12:31:34;15.30;99.90
15937;DHT22;9163;48.818;8.976;2022-09-24T12:34:28;15.30;99.90
15937;DHT22;9163;48.818;8.976;2022-09-24T12:37:02;15.40;99.90
15937;DHT22;9163;48.818;8.976;2022-09-24T12:39:36;15.60;99.90
15937;DHT22;9163;48.818;8.976;2022-09-24T12:42:06;15.80;99.90
15937;DHT22;9163;48.818;8.976;2022-09-24T12:44:39;16.10;99.90
15937;DHT22;9163;48.818;8.976;2022-09-24T12:47:16;16.40;99.90
15937;DHT22;9163;48.818;8.976;2022-09-24T12:49:51;16.80;99.90
15937;DHT22;9163;48.818;8.976;2022-09-24T12:52:24;17.10;99.90
15937;DHT22;9163;48.818;8.976;2022-09-24T12:55:00;17.20;99.90
15937;DHT22;9163;48.818;8.976;2022-09-24T12:57:32;17.30;99.90
15937;DHT22;9163;48.818;8.976;2022-09-24T13:00:03;16.80;99.90
15937;DHT22;9163;48.818;8.976;2022-09-24T13:02:44;16.90;99.90
15937;DHT22;9163;48.818;8.976;2022-09-24T13:05:24;16.90;99.90
15937;DHT22;9163;48.818;8.976;2022-09-24T13:07:58;16.90;99.90
15937;DHT22;9163;48.818;8.976;2022-09-24T13:10:28;16.90;99.90
15937;DHT22;9163;48.818;8.976;2022-09-24T13:12:57;17.10;99.90
15937;DHT22;9163;48.818;8.976;2022-09-24T13:15:35;17.00;99.90
15937;DHT22;9163;48.818;8.976;2022-09-24T13:18:17;17.10;99.90
15937;DHT22;9163;48.818;8.976;2022-09-24T13:20:57;17.10;99.90
15937;DHT22;9163;48.818;8.976;2022-09-24T13:23:31;17.20;99.90
15937;DHT22;9163;48.818;8.976;2022-09-24T13:26:02;17.20;99.90
15937;DHT22;9163;48.818;8.976;2022-09-24T13:28:31;17.30;99.90
15937;DHT22;9163;48.818;8.976;2022-09-24T13:31:08;17.50;99.90
15937;DHT22;9163;48.818;8.976;2022-09-24T13:33:42;17.70;99.90
15937;DHT22;9163;48.818;8.976;2022-09-24T13:36:12;17.90;99.90
15937;DHT22;9163;48.818;8.976;2022-09-24T13:38:48;18.00;99.90
15937;DHT22;9163;48.818;8.976;2022-09-24T13:41:26;18.20;99.90
15937;DHT22;9163;48.818;8.976;2022-09-24T13:44:00;18.40;99.90
15937;DHT22;9163;48.818;8.976;2022-09-24T13:46:29;18.50;99.90
15937;DHT22;9163;48.818;8.976;2022-09-24T13:49:01;18.30;99.90
15937;DHT22;9163;48.818;8.976;2022-09-24T13:51:35;18.40;99.90
15937;DHT22;9163;48.818;8.976;2022-09-24T13:54:11;18.30;99.90
15937;DHT22;9163;48.818;8.976;2022-09-24T13:56:39;18.20;99.90
15937;DHT22;9163;48.818;8.976;2022-09-24T13:59:10;17.80;99.90
15937;DHT22;9163;48.818;8.976;2022-09-24T14:01:42;17.70;99.90
15937;DHT22;9163;48.818;8.976;2022-09-24T14:04:17;17.60;99.90
15937;DHT22;9163;48.818;8.976;2022-09-24T14:06:48;17.60;99.90
15937;DHT22;9163;48.818;8.976;2022-09-24T14:09:28;17.50;99.90
15937;DHT22;9163;48.818;8.976;2022-09-24T14:11:57;17.30;99.90
15937;DHT22;9163;48.818;8.976;2022-09-24T14:14:27;17.20;99.90
15937;DHT22;9163;48.818;8.976;2022-09-24T14:17:05;17.10;99.90
15937;DHT22;9163;48.818;8.976;2022-09-24T14:19:33;17.20;99.90
15937;DHT22;9163;48.818;8.976;2022-09-24T14:22:02;17.20;99.90
15937;DHT22;9163;48.818;8.976;2022-09-24T14:24:34;17.20;99.90
15937;DHT22;9163;48.818;8.976;2022-09-24T14:27:03;17.20;99.90
15937;DHT22;9163;48.818;8.976;2022-09-24T14:29:37;17.30;99.90
15937;DHT22;9163;48.818;8.976;2022-09-24T14:32:06;17.40;99.90
15937;DHT22;9163;48.818;8.976;2022-09-24T14:34:44;17.50;99.90
15937;DHT22;9163;48.818;8.976;2022-09-24T14:37:14;17.50;99.90
15937;DHT22;9163;48.818;8.976;2022-09-24T14:39:45;17.50;99.90
15937;DHT22;9163;48.818;8.976;2022-09-24T14:42:20;17.60;99.90
15937;DHT22;9163;48.818;8.976;2022-09-24T14:44:49;17.60;99.90
15937;DHT22;9163;48.818;8.976;2022-09-24T14:47:25;17.70;99.90
15937;DHT22;9163;48.818;8.976;2022-09-24T14:49:54;17.60;99.90
15937;DHT22;9163;48.818;8.976;2022-09-24T14:52:27;17.70;99.90
15937;DHT22;9163;48.818;8.976;2022-09-24T14:55:15;17.60;99.90
15937;DHT22;9163;48.818;8.976;2022-09-24T14:57:44;17.50;99.90
15937;DHT22;9163;48.818;8.976;2022-09-24T15:00:23;17.40;99.90
15937;DHT22;9163;48.818;8.976;2022-09-24T15:02:56;17.50;99.90
15937;DHT22;9163;48.818;8.976;2022-09-24T15:05:26;17.50;99.90
15937;DHT22;9163;48.818;8.976;2022-09-24T15:08:14;17.50;99.90
15937;DHT22;9163;48.818;8.976;2022-09-24T15:10:50;17.40;99.90
15937;DHT22;9163;48.818;8.976;2022-09-24T15:13:21;17.40;99.90
15937;DHT22;9163;48.818;8.976;2022-09-24T15:16:00;17.40;99.90
15937;DHT22;9163;48.818;8.976;2022-09-24T15:18:28;17.40;99.90
15937;DHT22;9163;48.818;8.976;2022-09-24T15:20:56;17.20;99.90
15937;DHT22;9163;48.818;8.976;2022-09-24T15:23:24;17.20;99.90
15937;DHT22;9163;48.818;8.976;2022-09-24T15:25:52;17.20;99.90
15937;DHT22;9163;48.818;8.976;2022-09-24T15:28:19;17.20;99.90
15937;DHT22;9163;48.818;8.976;2022-09-24T15:30:51;17.20;99.90
15937;DHT22;9163;48.818;8.976;2022-09-24T15:33:19;17.10;99.90
15937;DHT22;9163;48.818;8.976;2022-09-24T15:35:46;17.00;99.90
15937;DHT22;9163;48.818;8.976;2022-09-24T15:38:17;17.00;99.90
15937;DHT22;9163;48.818;8.976;2022-09-24T15:40:45;16.90;99.90
15937;DHT22;9163;48.818;8.976;2022-09-24T15:43:19;16.80;99.90
15937;DHT22;9163;48.818;8.976;2022-09-24T15:45:47;16.80;99.90
15937;DHT22;9163;48.818;8.976;2022-09-24T15:48:15;16.70;99.90
15937;DHT22;9163;48.818;8.976;2022-09-24T15:50:44;16.70;99.90
15937;DHT22;9163;48.818;8.976;2022-09-24T15:53:20;16.60;99.90
15937;DHT22;9163;48.818;8.976;2022-09-24T15:55:52;16.50;99.90
15937;DHT22;9163;48.818;8.976;2022-09-24T15:58:19;16.40;99.90
15937;DHT22;9163;48.818;8.976;2022-09-24T16:00:47;16.30;99.90
15937;DHT22;9163;48.818;8.976;2022-09-24T16:03:17;16.20;99.90
15937;DHT22;9163;48.818;8.976;2022-09-24T16:05:46;16.20;99.90
15937;DHT22;9163;48.818;8.976;2022-09-24T16:08:13;16.10;99.90
15937;DHT22;9163;48.818;8.976;2022-09-24T16:10:43;16.10;99.90
15937;DHT22;9163;48.818;8.976;2022-09-24T16:13:11;16.00;99.90
15937;DHT22;9163;48.818;8.976;2022-09-24T16:15:39;15.80;99.90